createdAt,value
2023-04-09T00:01:16.394Z,82.30
2023-04-09T00:03:44.247Z,80.00
2023-04-09T00:06:13.041Z,76.60
2023-04-09T00:08:41.304Z,75.40
2023-04-09T00:11:09.683Z,73.80
2023-04-09T00:13:39.698Z,77.00
2023-04-09T00:16:08.919Z,81.70
2023-04-09T00:18:36.969Z,78.10
2023-04-09T00:21:05.061Z,79.90
2023-04-09T00:23:36.700Z,80.20
2023-04-09T00:26:05.095Z,275.70
2023-04-09T00:28:33.004Z,373.50
2023-04-09T00:31:00.758Z,236.70
2023-04-09T00:33:28.553Z,154.20
2023-04-09T00:35:56.339Z,94.10
2023-04-09T00:38:24.645Z,70.80
2023-04-09T00:40:52.939Z,67.40
2023-04-09T00:43:20.790Z,70.80
2023-04-09T00:45:49.075Z,78.90
2023-04-09T00:48:17.675Z,74.80
2023-04-09T00:50:45.494Z,63.90
2023-04-09T00:53:17.950Z,63.10
2023-04-09T00:55:46.379Z,66.10
2023-04-09T00:58:14.706Z,67.60
2023-04-09T01:00:42.736Z,62.00
2023-04-09T01:03:10.734Z,63.80
2023-04-09T01:05:49.635Z,60.00
2023-04-09T01:08:53.499Z,59.50
2023-04-09T01:11:52.744Z,58.70
2023-04-09T01:14:42.151Z,60.80
2023-04-09T01:17:17.387Z,57.00
2023-04-09T01:20:02.370Z,59.40
2023-04-09T01:23:05.471Z,75.40
2023-04-09T01:26:13.747Z,75.50
2023-04-09T01:28:46.635Z,78.40
2023-04-09T01:31:18.664Z,81.70
2023-04-09T01:33:47.740Z,83.30
2023-04-09T01:36:16.624Z,76.10
2023-04-09T01:38:48.786Z,76.00
2023-04-09T01:41:21.633Z,73.20
2023-04-09T01:43:51.691Z,76.70
2023-04-09T01:46:22.152Z,74.10
2023-04-09T01:48:51.359Z,76.60
2023-04-09T01:51:19.704Z,77.40
2023-04-09T01:53:49.507Z,75.10
2023-04-09T01:56:17.777Z,74.30
2023-04-09T01:58:46.004Z,74.50
2023-04-09T02:01:24.399Z,76.00
2023-04-09T02:04:01.024Z,73.40
2023-04-09T02:06:39.555Z,73.70
2023-04-09T02:09:09.865Z,77.10
2023-04-09T02:11:42.462Z,69.80
2023-04-09T02:14:12.537Z,53.10
2023-04-09T02:16:40.805Z,66.20
2023-04-09T02:19:08.573Z,66.60
2023-04-09T02:21:36.567Z,64.50
2023-04-09T02:24:04.397Z,63.10
2023-04-09T02:26:32.322Z,70.40
2023-04-09T02:29:00.127Z,67.70
2023-04-09T02:31:27.886Z,73.60
2023-04-09T02:33:55.724Z,69.00
2023-04-09T02:36:23.646Z,70.90
2023-04-09T02:38:51.683Z,73.30
2023-04-09T02:41:19.659Z,62.30
2023-04-09T02:43:47.488Z,63.50
2023-04-09T02:46:15.449Z,57.20
2023-04-09T02:48:43.192Z,58.50
2023-04-09T02:51:11.014Z,61.10
2023-04-09T02:53:40.842Z,57.70
2023-04-09T02:56:08.687Z,61.50
2023-04-09T02:58:36.498Z,58.50
2023-04-09T03:01:04.920Z,61.60
2023-04-09T03:03:33.365Z,59.50
2023-04-09T03:06:01.209Z,60.60
2023-04-09T03:08:28.909Z,60.80
2023-04-09T03:10:56.723Z,58.40
2023-04-09T03:13:28.478Z,59.40
2023-04-09T03:15:56.660Z,58.80
2023-04-09T03:18:24.406Z,60.80
2023-04-09T03:20:52.234Z,63.60
2023-04-09T03:23:20.320Z,59.60
2023-04-09T03:25:48.174Z,58.20
2023-04-09T03:28:16.026Z,60.00
2023-04-09T03:30:44.178Z,55.70
2023-04-09T03:33:11.878Z,58.80
2023-04-09T03:35:39.782Z,57.40
2023-04-09T03:38:07.709Z,60.60
2023-04-09T03:40:36.633Z,58.60
2023-04-09T03:43:04.569Z,58.90
2023-04-09T03:45:32.726Z,56.40
2023-04-09T03:48:00.798Z,56.70
2023-04-09T03:50:28.832Z,54.60
2023-04-09T03:52:56.691Z,56.00
2023-04-09T03:55:24.416Z,56.90
2023-04-09T03:57:52.675Z,58.60
2023-04-09T04:00:20.815Z,57.00
2023-04-09T04:02:48.692Z,62.70
2023-04-09T04:05:16.792Z,59.20
2023-04-09T04:07:45.131Z,65.20
2023-04-09T04:10:12.994Z,68.00
2023-04-09T04:12:40.929Z,71.90
2023-04-09T04:15:09.837Z,68.50
2023-04-09T04:17:37.796Z,67.80
2023-04-09T04:20:06.357Z,68.70
2023-04-09T04:22:35.399Z,68.20
2023-04-09T04:25:04.711Z,68.70
2023-04-09T04:27:32.639Z,66.20
2023-04-09T04:30:02.256Z,71.20
2023-04-09T04:32:30.592Z,70.20
2023-04-09T04:34:58.371Z,70.70
2023-04-09T04:37:26.219Z,66.60
2023-04-09T04:39:54.216Z,67.50
2023-04-09T04:42:23.226Z,66.90
2023-04-09T04:44:51.253Z,74.80
2023-04-09T04:47:19.593Z,68.40
2023-04-09T04:49:47.638Z,74.00
2023-04-09T04:52:17.668Z,68.20
2023-04-09T04:54:45.715Z,64.00
2023-04-09T04:57:14.003Z,66.30
2023-04-09T04:59:41.990Z,64.70
2023-04-09T05:02:10.333Z,68.00
2023-04-09T05:04:38.543Z,65.80
2023-04-09T05:07:06.373Z,69.80
2023-04-09T05:09:34.967Z,83.30
2023-04-09T05:12:03.150Z,84.20
2023-04-09T05:14:31.663Z,71.40
2023-04-09T05:16:59.685Z,69.30
2023-04-09T05:19:27.455Z,65.40
2023-04-09T05:21:55.175Z,62.40
2023-04-09T05:24:22.865Z,63.50
2023-04-09T05:26:51.328Z,57.90
2023-04-09T05:29:19.069Z,61.30
2023-04-09T05:31:46.856Z,59.50
2023-04-09T05:34:14.707Z,67.30
2023-04-09T05:36:42.540Z,100.50
2023-04-09T05:39:11.106Z,95.80
2023-04-09T05:41:39.169Z,88.20
2023-04-09T05:44:06.932Z,91.50
2023-04-09T05:46:34.723Z,91.00
2023-04-09T05:49:02.638Z,73.70
2023-04-09T05:51:30.459Z,72.00
2023-04-09T05:53:59.489Z,70.20
2023-04-09T05:56:28.231Z,64.60
2023-04-09T05:58:56.148Z,78.30
2023-04-09T06:01:24.112Z,79.30
2023-04-09T06:03:54.062Z,67.60
2023-04-09T06:06:24.866Z,62.90
2023-04-09T06:08:52.887Z,57.10
2023-04-09T06:11:21.860Z,48.60
2023-04-09T06:13:50.347Z,51.70
2023-04-09T06:16:18.985Z,47.00
2023-04-09T06:18:49.776Z,52.30
2023-04-09T06:21:17.548Z,66.60
2023-04-09T06:23:45.331Z,59.50
2023-04-09T06:26:13.080Z,50.80
2023-04-09T06:28:41.448Z,52.90
2023-04-09T06:31:09.916Z,48.70
2023-04-09T06:33:37.630Z,48.80
2023-04-09T06:36:05.625Z,46.90
2023-04-09T06:38:33.526Z,48.30
2023-04-09T06:41:01.242Z,47.80
2023-04-09T06:43:29.554Z,47.10
2023-04-09T06:45:57.977Z,47.00
2023-04-09T06:48:25.807Z,49.30
2023-04-09T06:50:53.629Z,47.90
2023-04-09T06:53:21.528Z,45.30
2023-04-09T06:55:50.105Z,42.10
2023-04-09T06:58:18.280Z,43.10
2023-04-09T07:00:46.000Z,44.00
2023-04-09T07:03:14.896Z,44.50
2023-04-09T07:05:43.193Z,42.80
2023-04-09T07:08:11.857Z,40.50
2023-04-09T07:10:40.197Z,41.00
2023-04-09T07:13:07.993Z,43.30
2023-04-09T07:15:44.992Z,41.30
2023-04-09T07:18:16.240Z,41.30
2023-04-09T07:20:44.421Z,39.90
2023-04-09T07:23:12.793Z,41.10
2023-04-09T07:25:40.898Z,39.50
2023-04-09T07:28:08.670Z,39.60
2023-04-09T07:30:36.415Z,38.90
2023-04-09T07:33:06.947Z,43.90
2023-04-09T07:35:35.476Z,34.90
2023-04-09T07:38:03.814Z,34.10
2023-04-09T07:40:34.746Z,42.30
2023-04-09T07:43:04.555Z,36.80
2023-04-09T07:45:32.357Z,36.50
2023-04-09T07:48:00.979Z,34.80
2023-04-09T07:50:30.438Z,33.80
2023-04-09T07:52:58.731Z,33.20
2023-04-09T07:55:26.550Z,34.90
2023-04-09T07:57:54.818Z,33.60
2023-04-09T08:00:22.908Z,36.50
2023-04-09T08:02:51.148Z,35.70
2023-04-09T08:05:21.987Z,32.90
2023-04-09T08:07:53.687Z,33.50
2023-04-09T08:10:21.518Z,32.80
2023-04-09T08:12:50.380Z,32.30
2023-04-09T08:15:18.170Z,32.50
2023-04-09T08:17:45.950Z,32.60
2023-04-09T08:20:14.429Z,32.60
2023-04-09T08:22:42.867Z,31.90
2023-04-09T08:25:10.942Z,30.20
2023-04-09T08:27:39.810Z,29.50
2023-04-09T08:30:08.650Z,35.80
2023-04-09T08:32:37.029Z,31.10
2023-04-09T08:35:06.432Z,30.30
2023-04-09T08:37:35.411Z,28.30
2023-04-09T08:40:03.676Z,28.20
2023-04-09T08:42:34.160Z,28.80
2023-04-09T08:45:04.910Z,26.70
2023-04-09T08:47:35.320Z,33.60
2023-04-09T08:50:04.478Z,29.80
2023-04-09T08:52:34.226Z,32.20
2023-04-09T08:55:02.263Z,30.20
2023-04-09T08:57:30.146Z,31.50
2023-04-09T08:59:59.031Z,27.10
2023-04-09T09:02:27.464Z,28.30
2023-04-09T09:05:00.912Z,26.80
2023-04-09T09:07:32.100Z,27.60
2023-04-09T09:10:03.802Z,27.90
2023-04-09T09:12:40.601Z,27.70
2023-04-09T09:15:29.667Z,26.30
2023-04-09T09:18:00.130Z,26.40
2023-04-09T09:20:28.033Z,26.80
2023-04-09T09:22:57.192Z,27.20
2023-04-09T09:25:26.776Z,26.70
2023-04-09T09:27:54.872Z,26.10
2023-04-09T09:30:27.600Z,26.60
2023-04-09T09:33:10.718Z,26.50
2023-04-09T09:35:54.183Z,24.70
2023-04-09T09:38:22.176Z,22.60
2023-04-09T09:40:50.407Z,25.20
2023-04-09T09:43:18.818Z,24.50
2023-04-09T09:45:48.301Z,23.30
2023-04-09T09:48:16.534Z,23.90
2023-04-09T09:50:47.731Z,24.50
2023-04-09T09:53:23.166Z,25.40
2023-04-09T09:55:57.350Z,25.30
2023-04-09T09:58:32.089Z,24.90
2023-04-09T10:01:01.455Z,25.10
2023-04-09T10:03:32.240Z,22.60
2023-04-09T10:06:03.121Z,24.80
2023-04-09T10:08:34.181Z,23.30
2023-04-09T10:11:02.750Z,22.30
2023-04-09T10:13:45.430Z,21.80
2023-04-09T10:16:14.380Z,21.00
2023-04-09T10:18:43.751Z,19.40
2023-04-09T10:21:24.775Z,19.50
2023-04-09T10:23:53.785Z,21.30
2023-04-09T10:26:22.295Z,20.10
2023-04-09T10:29:08.862Z,20.10
2023-04-09T10:31:50.039Z,18.80
2023-04-09T10:34:20.532Z,17.80
2023-04-09T10:36:55.364Z,19.00
2023-04-09T10:39:28.625Z,19.90
2023-04-09T10:41:58.506Z,19.40
2023-04-09T10:44:27.845Z,18.80
2023-04-09T10:46:56.253Z,18.40
2023-04-09T10:49:27.079Z,18.10
2023-04-09T10:52:02.421Z,17.90
2023-04-09T10:54:33.927Z,17.20
2023-04-09T10:57:07.929Z,16.90
2023-04-09T10:59:39.153Z,16.10
2023-04-09T11:02:18.643Z,18.10
2023-04-09T11:05:06.435Z,16.20
2023-04-09T11:07:40.658Z,16.60
2023-04-09T11:10:09.096Z,17.30
2023-04-09T11:12:36.899Z,16.80
2023-04-09T11:15:05.836Z,15.50
2023-04-09T11:17:37.040Z,15.30
2023-04-09T11:20:06.052Z,17.30
2023-04-09T11:22:34.357Z,15.40
2023-04-09T11:25:03.140Z,15.20
2023-04-09T11:27:30.884Z,16.20
2023-04-09T11:30:01.769Z,16.00
2023-04-09T11:32:31.440Z,16.60
2023-04-09T11:34:59.839Z,15.10
2023-04-09T11:37:28.286Z,16.30
2023-04-09T11:39:57.973Z,16.00
2023-04-09T11:42:25.922Z,15.00
2023-04-09T11:44:54.260Z,14.40
2023-04-09T11:47:22.299Z,14.00
2023-04-09T11:49:50.708Z,15.90
2023-04-09T11:52:19.357Z,15.70
2023-04-09T11:54:50.417Z,21.50
2023-04-09T11:57:18.091Z,17.60
2023-04-09T11:59:46.371Z,16.90
2023-04-09T12:02:19.476Z,18.80
2023-04-09T12:04:51.233Z,17.50
2023-04-09T12:07:19.091Z,24.20
2023-04-09T12:09:48.775Z,17.70
2023-04-09T12:12:21.491Z,16.20
2023-04-09T12:14:51.996Z,15.30
2023-04-09T12:17:21.305Z,17.10
2023-04-09T12:19:49.356Z,17.90
2023-04-09T12:22:17.175Z,18.20
2023-04-09T12:24:45.044Z,17.20
2023-04-09T12:27:13.920Z,16.80
2023-04-09T12:29:41.679Z,15.80
2023-04-09T12:32:09.451Z,16.00
2023-04-09T12:34:37.549Z,16.30
2023-04-09T12:37:05.626Z,16.20
2023-04-09T12:39:34.407Z,16.10
2023-04-09T12:42:02.471Z,15.10
2023-04-09T12:44:33.210Z,16.20
2023-04-09T12:47:01.275Z,15.10
2023-04-09T12:49:29.577Z,17.70
2023-04-09T12:51:57.347Z,19.70
2023-04-09T12:54:25.168Z,17.80
2023-04-09T12:56:53.128Z,21.00
2023-04-09T12:59:21.337Z,19.50
2023-04-09T13:01:49.193Z,18.70
2023-04-09T13:04:17.369Z,17.90
2023-04-09T13:06:45.720Z,17.10
2023-04-09T13:09:13.434Z,15.70
2023-04-09T13:11:41.303Z,18.50
2023-04-09T13:14:13.554Z,17.70
2023-04-09T13:16:41.966Z,21.50
2023-04-09T13:19:10.382Z,17.50
2023-04-09T13:21:38.084Z,18.40
2023-04-09T13:24:06.922Z,20.40
2023-04-09T13:26:34.633Z,16.60
2023-04-09T13:29:03.527Z,17.50
2023-04-09T13:31:31.372Z,17.70
2023-04-09T13:33:59.267Z,18.30
2023-04-09T13:36:27.829Z,16.80
2023-04-09T13:38:56.444Z,20.30
2023-04-09T13:41:29.777Z,19.60
2023-04-09T13:43:59.887Z,18.70
2023-04-09T13:46:28.377Z,18.10
2023-04-09T13:48:56.145Z,19.90
2023-04-09T13:51:24.237Z,19.20
2023-04-09T13:53:52.825Z,18.50
2023-04-09T13:56:20.896Z,18.40
2023-04-09T13:58:49.110Z,18.80
2023-04-09T14:01:17.746Z,20.40
2023-04-09T14:03:45.691Z,20.20
2023-04-09T14:06:13.723Z,18.50
2023-04-09T14:08:42.290Z,18.70
2023-04-09T14:11:14.123Z,17.30
2023-04-09T14:13:41.869Z,19.00
2023-04-09T14:16:10.018Z,20.70
2023-04-09T14:18:39.436Z,18.80
2023-04-09T14:21:09.982Z,17.00
2023-04-09T14:23:41.501Z,19.60
2023-04-09T14:26:09.819Z,18.60
2023-04-09T14:28:38.066Z,20.00
2023-04-09T14:31:06.418Z,19.60
2023-04-09T14:33:34.228Z,21.90
2023-04-09T14:36:02.521Z,18.90
2023-04-09T14:38:30.307Z,22.50
2023-04-09T14:40:58.376Z,21.20
2023-04-09T14:43:26.320Z,19.80
2023-04-09T14:45:54.786Z,21.00
2023-04-09T14:48:23.100Z,20.40
2023-04-09T14:50:51.805Z,16.90
2023-04-09T14:53:19.562Z,15.60
2023-04-09T14:55:47.764Z,17.00
2023-04-09T14:58:15.523Z,15.70
2023-04-09T15:00:44.993Z,16.30
2023-04-09T15:03:13.396Z,16.80
2023-04-09T15:05:41.525Z,16.50
2023-04-09T15:08:09.328Z,17.80
2023-04-09T15:10:37.880Z,15.60
2023-04-09T15:13:05.970Z,14.30
2023-04-09T15:15:34.060Z,13.60
2023-04-09T15:18:05.914Z,17.10
2023-04-09T15:20:39.232Z,16.40
2023-04-09T15:23:07.134Z,13.70
2023-04-09T15:25:34.973Z,13.50
2023-04-09T15:28:03.591Z,13.70
2023-04-09T15:30:32.192Z,13.70
2023-04-09T15:33:00.615Z,13.50
2023-04-09T15:35:29.467Z,13.10
2023-04-09T15:37:57.743Z,13.30
2023-04-09T15:40:25.556Z,13.10
2023-04-09T15:42:53.314Z,12.30
2023-04-09T15:45:21.461Z,13.40
2023-04-09T15:47:49.268Z,13.50
2023-04-09T15:50:17.076Z,13.20
2023-04-09T15:52:45.286Z,16.00
2023-04-09T15:55:13.016Z,14.00
2023-04-09T15:57:40.868Z,14.60
2023-04-09T16:00:10.693Z,13.20
2023-04-09T16:02:39.112Z,15.30
2023-04-09T16:05:07.752Z,14.50
2023-04-09T16:07:35.951Z,16.10
2023-04-09T16:10:04.964Z,16.30
2023-04-09T16:12:32.851Z,19.80
2023-04-09T16:15:01.638Z,19.90
2023-04-09T16:17:34.523Z,18.80
2023-04-09T16:20:08.623Z,18.20
2023-04-09T16:22:37.083Z,19.10
2023-04-09T16:25:05.373Z,19.40
2023-04-09T16:27:33.773Z,20.20
2023-04-09T16:30:02.018Z,24.60
2023-04-09T16:32:29.894Z,21.00
2023-04-09T16:35:00.907Z,22.70
2023-04-09T16:37:29.423Z,26.50
2023-04-09T16:39:58.187Z,29.70
2023-04-09T16:42:27.640Z,30.70
2023-04-09T16:44:55.696Z,39.10
2023-04-09T16:47:23.536Z,46.20
2023-04-09T16:49:51.836Z,50.00
2023-04-09T16:52:20.042Z,57.00
2023-04-09T16:54:47.759Z,56.40
2023-04-09T16:57:16.679Z,56.30
2023-04-09T16:59:45.208Z,46.50
2023-04-09T17:02:12.959Z,48.40
2023-04-09T17:04:42.395Z,46.30
2023-04-09T17:07:10.637Z,39.80
2023-04-09T17:09:38.345Z,37.30
2023-04-09T17:12:06.405Z,38.50
2023-04-09T17:14:34.557Z,44.60
2023-04-09T17:17:02.728Z,52.80
2023-04-09T17:19:31.513Z,44.80
2023-04-09T17:22:00.234Z,40.10
2023-04-09T17:24:28.118Z,34.60
2023-04-09T17:26:56.790Z,34.20
2023-04-09T17:29:24.484Z,41.20
2023-04-09T17:31:53.310Z,64.40
2023-04-09T17:34:21.949Z,54.20
2023-04-09T17:36:56.405Z,52.50
2023-04-09T17:39:24.514Z,40.10
2023-04-09T17:41:53.664Z,35.60
2023-04-09T17:44:21.776Z,35.80
2023-04-09T17:46:49.625Z,50.40
2023-04-09T17:49:17.916Z,53.60
2023-04-09T17:51:46.264Z,60.00
2023-04-09T17:54:14.911Z,63.20
2023-04-09T17:56:42.748Z,60.10
2023-04-09T17:59:10.630Z,54.30
2023-04-09T18:01:38.452Z,52.00
2023-04-09T18:04:06.982Z,48.10
2023-04-09T18:06:35.360Z,47.00
2023-04-09T18:09:03.324Z,42.10
2023-04-09T18:11:31.353Z,41.20
2023-04-09T18:13:59.140Z,44.00
2023-04-09T18:16:28.432Z,50.30
2023-04-09T18:18:56.882Z,43.00
2023-04-09T18:21:25.106Z,40.10
2023-04-09T18:23:52.954Z,40.80
2023-04-09T18:26:20.780Z,42.20
2023-04-09T18:28:48.515Z,45.60
2023-04-09T18:31:16.513Z,45.00
2023-04-09T18:33:44.794Z,44.30
2023-04-09T18:36:13.429Z,45.40
2023-04-09T18:38:41.297Z,49.70
2023-04-09T18:41:11.054Z,60.80
2023-04-09T18:43:38.887Z,60.80
2023-04-09T18:46:06.818Z,60.60
2023-04-09T18:48:35.802Z,65.70
2023-04-09T18:51:04.560Z,62.90
2023-04-09T18:53:32.335Z,59.80
2023-04-09T18:58:46.581Z,58.70
2023-04-09T19:01:14.757Z,60.40
2023-04-09T19:03:43.260Z,58.80
2023-04-09T19:06:19.152Z,62.50
2023-04-09T19:08:48.348Z,66.80
2023-04-09T19:11:16.646Z,75.10
2023-04-09T19:13:44.596Z,77.00
2023-04-09T19:16:12.421Z,75.20
2023-04-09T19:18:40.193Z,74.80
2023-04-09T19:21:08.488Z,74.90
2023-04-09T19:23:36.828Z,68.40
2023-04-09T19:26:05.631Z,66.70
2023-04-09T19:28:33.612Z,66.30
2023-04-09T19:31:03.420Z,63.80
2023-04-09T19:33:31.921Z,57.40
2023-04-09T19:35:59.919Z,54.40
2023-04-09T19:38:28.382Z,51.70
2023-04-09T19:40:56.500Z,51.30
2023-04-09T19:43:24.556Z,49.50
2023-04-09T19:45:52.318Z,50.10
2023-04-09T19:48:20.136Z,51.30
2023-04-09T19:50:49.015Z,51.90
2023-04-09T19:53:18.583Z,52.50
2023-04-09T19:55:46.541Z,56.70
2023-04-09T19:58:14.344Z,55.70
2023-04-09T20:00:42.156Z,58.20
2023-04-09T20:03:10.652Z,58.20
2023-04-09T20:05:38.998Z,52.70
2023-04-09T20:08:12.211Z,52.00
2023-04-09T20:10:45.119Z,56.40
2023-04-09T20:13:13.665Z,55.90
2023-04-09T20:15:41.899Z,54.30
2023-04-09T20:18:10.525Z,54.30
2023-04-09T20:20:38.787Z,53.70
2023-04-09T20:23:06.523Z,56.40
2023-04-09T20:25:36.724Z,57.10
2023-04-09T20:28:04.891Z,53.10
2023-04-09T20:30:32.708Z,54.00
2023-04-09T20:33:01.462Z,52.70
2023-04-09T20:35:29.728Z,52.20
2023-04-09T20:37:57.423Z,52.90
2023-04-09T20:40:25.568Z,55.50
2023-04-09T20:42:53.350Z,53.60
2023-04-09T20:45:21.167Z,51.60
2023-04-09T20:47:53.338Z,47.80
2023-04-09T20:50:22.048Z,50.10
2023-04-09T20:52:49.898Z,48.20
2023-04-09T20:55:18.160Z,49.10
2023-04-09T20:57:45.963Z,49.10
2023-04-09T21:00:14.735Z,43.40
2023-04-09T21:02:43.199Z,46.90
2023-04-09T21:05:21.887Z,44.60
2023-04-09T21:07:52.784Z,47.20
2023-04-09T21:10:21.338Z,44.80
2023-04-09T21:12:49.687Z,48.20
2023-04-09T21:15:17.730Z,50.30
2023-04-09T21:17:45.662Z,50.50
2023-04-09T21:20:15.211Z,47.30
2023-04-09T21:22:42.983Z,41.00
2023-04-09T21:25:12.735Z,39.80
2023-04-09T21:27:42.948Z,40.60
2023-04-09T21:30:11.196Z,39.90
2023-04-09T21:32:38.954Z,40.80
2023-04-09T21:35:07.048Z,42.00
2023-04-09T21:37:37.575Z,40.60
2023-04-09T21:40:06.543Z,39.90
2023-04-09T21:42:34.720Z,39.00
2023-04-09T21:45:03.208Z,43.60
2023-04-09T21:47:32.059Z,41.80
2023-04-09T21:50:00.045Z,41.60
2023-04-09T21:52:28.324Z,44.10
2023-04-09T21:54:57.172Z,45.80
2023-04-09T21:57:24.919Z,45.40
2023-04-09T21:59:54.006Z,40.10
2023-04-09T22:02:22.284Z,39.30
2023-04-09T22:04:50.790Z,39.00
2023-04-09T22:07:18.688Z,38.40
2023-04-09T22:09:48.831Z,37.50
2023-04-09T22:12:16.621Z,38.50
2023-04-09T22:14:46.041Z,50.30
2023-04-09T22:17:13.849Z,54.60
2023-04-09T22:19:44.249Z,48.00
2023-04-09T22:22:13.641Z,44.90
2023-04-09T22:24:41.922Z,37.80
2023-04-09T22:27:13.084Z,38.70
2023-04-09T22:29:40.980Z,36.10
2023-04-09T22:32:09.483Z,36.50
2023-04-09T22:34:37.449Z,36.90
2023-04-09T22:37:05.185Z,38.00
2023-04-09T22:39:33.096Z,39.80
2023-04-09T22:42:01.875Z,39.40
2023-04-09T22:44:29.800Z,35.80
2023-04-09T22:46:57.717Z,36.60
2023-04-09T22:49:26.124Z,35.50
2023-04-09T22:51:54.890Z,35.80
2023-04-09T22:54:22.972Z,35.20
2023-04-09T22:56:50.894Z,34.60
2023-04-09T22:59:19.976Z,37.70
2023-04-09T23:01:49.960Z,40.50
2023-04-09T23:04:22.988Z,36.20
2023-04-09T23:06:51.267Z,37.50
2023-04-09T23:09:19.000Z,33.70
2023-04-09T23:11:46.857Z,35.40
2023-04-09T23:14:15.073Z,34.20
2023-04-09T23:16:43.767Z,34.30
2023-04-09T23:19:11.839Z,33.80
2023-04-09T23:21:39.587Z,33.30
2023-04-09T23:24:07.368Z,32.50
2023-04-09T23:26:35.038Z,33.80
2023-04-09T23:29:12.474Z,32.50
2023-04-09T23:31:41.152Z,31.90
2023-04-09T23:34:08.968Z,33.20
2023-04-09T23:36:36.681Z,32.70
2023-04-09T23:39:04.439Z,33.20
2023-04-09T23:41:32.591Z,31.90
2023-04-09T23:44:00.992Z,33.40
2023-04-09T23:46:28.783Z,31.10
2023-04-09T23:49:00.485Z,36.50
2023-04-09T23:51:28.352Z,37.20
2023-04-09T23:53:56.171Z,35.00
2023-04-09T23:56:25.230Z,35.50
2023-04-09T23:58:53.412Z,34.80
